createdAt,value
2017-06-27T00:00:02.797Z,12.51
2017-06-27T00:10:02.342Z,12.36
2017-06-27T00:20:02.847Z,12.18
2017-06-27T00:30:02.282Z,12.08
2017-06-27T00:40:02.766Z,11.98
2017-06-27T00:50:02.608Z,11.86
2017-06-27T01:00:03.085Z,11.74
2017-06-27T01:10:02.778Z,11.66
2017-06-27T01:20:02.676Z,11.54
2017-06-27T01:30:02.145Z,11.46
2017-06-27T01:40:02.493Z,11.31
2017-06-27T01:50:02.781Z,11.25
2017-06-27T02:00:02.266Z,11.16
2017-06-27T02:10:02.358Z,11.04
2017-06-27T02:20:02.172Z,10.86
2017-06-27T02:30:02.641Z,10.84
2017-06-27T02:40:02.498Z,10.78
2017-06-27T02:50:02.674Z,10.7
2017-06-27T03:00:02.144Z,10.7
2017-06-27T03:10:02.593Z,10.71
2017-06-27T03:20:02.727Z,10.66
2017-06-27T03:30:02.152Z,10.6
2017-06-27T03:40:02.618Z,10.73
2017-06-27T03:50:02.526Z,10.9
2017-06-27T04:00:03.008Z,11.09
2017-06-27T04:10:03.076Z,11.24
2017-06-27T04:20:02.325Z,11.37
2017-06-27T04:30:02.837Z,11.36
2017-06-27T04:40:02.319Z,11.57
2017-06-27T04:50:02.739Z,11.54
2017-06-27T05:00:02.849Z,11.46
2017-06-27T05:10:02.511Z,11.59
2017-06-27T05:20:02.327Z,11.75
2017-06-27T05:30:02.789Z,11.96
2017-06-27T05:40:02.265Z,12.29
2017-06-27T05:50:02.516Z,12.56
2017-06-27T06:00:02.974Z,12.78
2017-06-27T06:10:02.997Z,12.91
2017-06-27T06:20:02.320Z,13.17
2017-06-27T06:30:02.774Z,13.48
2017-06-27T06:40:02.494Z,13.78
2017-06-27T06:50:02.831Z,14.11
2017-06-27T07:00:02.296Z,14.28
2017-06-27T07:10:03.071Z,14.51
2017-06-27T07:20:02.894Z,14.88
2017-06-27T07:30:02.361Z,15.16
2017-06-27T07:40:03.064Z,15.27
2017-06-27T07:50:02.899Z,15.34
2017-06-27T08:00:02.403Z,16.04
2017-06-27T08:10:02.764Z,16.4
2017-06-27T08:20:02.711Z,16.32
2017-06-27T08:30:02.173Z,16.88
2017-06-27T08:40:02.659Z,17.48
2017-06-27T08:50:03.104Z,17.75
2017-06-27T09:00:02.532Z,17.69
2017-06-27T09:10:03.540Z,17.68
2017-06-27T09:20:02.995Z,17.87
2017-06-27T09:30:02.582Z,18.28
2017-06-27T09:40:02.207Z,18.27
2017-06-27T09:50:02.330Z,18.3
2017-06-27T10:00:02.805Z,17.99
2017-06-27T10:10:02.786Z,18.22
2017-06-27T10:20:03.102Z,18.3
2017-06-27T10:30:02.566Z,18.67
2017-06-27T10:40:02.991Z,19.58
2017-06-27T10:50:02.318Z,20.27
2017-06-27T11:00:02.804Z,19.98
2017-06-27T11:10:03.093Z,19.79
2017-06-27T11:20:02.393Z,20.03
2017-06-27T11:30:02.859Z,20.13
2017-06-27T11:40:03.038Z,20.21
2017-06-27T11:50:02.384Z,20.8
2017-06-27T12:00:02.876Z,21.15
2017-06-27T12:10:02.739Z,21.02
2017-06-27T12:20:02.815Z,21.13
2017-06-27T12:30:02.253Z,21.34
2017-06-27T12:40:02.716Z,21.7
2017-06-27T12:50:02.769Z,22.08
2017-06-27T13:00:02.287Z,21.73
2017-06-27T13:10:02.446Z,21.51
2017-06-27T13:20:03.122Z,21.9
2017-06-27T13:30:02.572Z,22.12
2017-06-27T13:40:02.543Z,22.73
2017-06-27T13:50:02.816Z,22.94
2017-06-27T14:00:02.285Z,23.28
2017-06-27T14:10:03.078Z,23.7
2017-06-27T14:20:03.043Z,23.14
2017-06-27T14:30:02.514Z,22.83
2017-06-27T14:40:02.985Z,22.37
2017-06-27T14:50:02.764Z,22.21
2017-06-27T15:00:02.221Z,22.03
2017-06-27T15:10:02.217Z,21.84
2017-06-27T15:20:02.641Z,21.84
2017-06-27T15:30:03.088Z,21.89
2017-06-27T15:40:02.557Z,21.69
2017-06-27T15:50:02.801Z,21.23
2017-06-27T16:00:02.243Z,21.11
2017-06-27T16:20:02.258Z,21.06
2017-06-27T16:30:02.682Z,20.95
2017-06-27T16:40:03.148Z,20.78
2017-06-27T16:50:02.793Z,20.71
2017-06-27T17:00:02.302Z,20.64
2017-06-27T17:10:02.777Z,20.5
2017-06-27T17:20:02.591Z,20.36
2017-06-27T17:30:03.061Z,20.09
2017-06-27T17:40:02.711Z,19.91
2017-06-27T17:50:02.154Z,19.8
2017-06-27T18:00:02.653Z,19.65
2017-06-27T18:10:02.436Z,19.54
2017-06-27T18:20:02.794Z,19.46
2017-06-27T18:30:02.232Z,19.3
2017-06-27T18:40:02.702Z,19.18
2017-06-27T18:50:02.530Z,19.12
2017-06-27T19:00:02.994Z,19.03
2017-06-27T19:10:02.549Z,18.94
2017-06-27T19:20:02.497Z,18.81
2017-06-27T19:30:02.951Z,18.74
2017-06-27T19:40:02.573Z,18.63
2017-06-27T19:50:02.214Z,18.57
2017-06-27T20:00:02.689Z,18.54
2017-06-27T20:10:03.174Z,18.48
2017-06-27T20:20:02.340Z,18.4
2017-06-27T20:30:02.818Z,18.32
2017-06-27T20:40:02.291Z,18.15
2017-06-27T20:50:03.086Z,17.85
2017-06-27T21:00:02.525Z,17.67
2017-06-27T21:10:02.723Z,17.45
2017-06-27T21:20:02.798Z,17.38
2017-06-27T21:30:02.219Z,17.26
2017-06-27T21:40:02.669Z,17.23
2017-06-27T21:50:02.602Z,17.14
2017-06-27T22:00:03.219Z,16.99
2017-06-27T22:10:02.265Z,16.87
2017-06-27T22:20:02.901Z,16.78
2017-06-27T22:30:02.362Z,16.73
2017-06-27T22:40:02.471Z,16.67
2017-06-27T22:50:02.791Z,16.52
2017-06-27T23:00:02.280Z,16.55
2017-06-27T23:10:02.160Z,16.5
2017-06-27T23:20:02.459Z,16.48
2017-06-27T23:30:02.909Z,16.49
2017-06-27T23:40:02.365Z,16.47
2017-06-27T23:50:03.013Z,16.44
